Flight Track Log - Related Links

Times and Time Zones

All times are in EDT time to prevent confusion due to time zone crossing. See the SWA155 flight status page for this flight to view local times or setup timezone preferences in your user account.

Time Position Orientation Groundspeed Altitude Reporting Facility
EDT Latitude Longitude Course Direction KTS MPH feet Rate Location/Type
Sun 08:54:20 AM 27.9667 -82.5500 180° South 177 204 600  Level Tampa TRACON
Sun 08:55:08 AM 27.9167 -82.5500 180° South 182 209 2,300 2,548 Climbing Tampa TRACON
Sun 08:56:46 AM 27.8867 -82.6414 250° West 202 232 6,800 3,038 Climbing Jacksonville Center
Sun 08:57:46 AM 27.9642 -82.6669 344° North 174 200 10,300 3,000 Climbing Jacksonville Center
Sun 08:58:46 AM 28.0558 -82.6881 349° North 226 260 12,800 2,550 Climbing Jacksonville Center
Sun 08:59:46 AM 28.1539 -82.7136 347° North 305 351 15,400 2,750 Climbing Jacksonville Center
Sun 09:00:46 AM 28.2583 -82.7369 349° North 347 399 18,300 2,750 Climbing Jacksonville Center
Sun 09:01:46 AM 28.3647 -82.7628 348° North 371 427 20,900 2,550 Climbing Jacksonville Center
Sun 09:02:46 AM 28.4756 -82.7886 348° North 392 451 23,400 2,300 Climbing Jacksonville Center
Sun 09:03:46 AM 28.5881 -82.8169 348° North 403 464 25,500 1,550 Climbing Jacksonville Center
Sun 09:04:46 AM 28.7008 -82.8569 343° North 413 475 26,500 1,450 Climbing Jacksonville Center
Sun 09:05:46 AM 28.8114 -82.9186 334° Northwest 425 489 28,400 1,900 Climbing Jacksonville Center
Sun 09:06:46 AM 28.9178 -82.9756 335° Northwest 430 495 30,300 1,800 Climbing Jacksonville Center
Sun 09:07:46 AM 29.0283 -83.0375 334° Northwest 430 495 32,000 1,650 Climbing Jacksonville Center
Sun 09:08:46 AM 29.1411 -83.0969 335° Northwest 430 495 33,600 1,650 Climbing Jacksonville Center
Sun 09:09:46 AM 29.2494 -83.1567 334° Northwest 430 495 35,300 1,700 Climbing Jacksonville Center
Sun 09:10:46 AM 29.3581 -83.2142 335° Northwest 430 495 37,000 1,350 Climbing Jacksonville Center
Sun 09:11:46 AM 29.4642 -83.2694 336° Northwest 423 487 38,000 500 Climbing Jacksonville Center
Sun 09:12:46 AM 29.5894 -83.3153 342° North 423 487 38,000  Level Jacksonville Center
Sun 09:13:46 AM 29.7083 -83.3517 345° North 423 487 38,000  Level Jacksonville Center
Sun 09:14:46 AM 29.8231 -83.3833 347° North 428 493 38,000  Level Jacksonville Center
Sun 09:15:46 AM 29.9419 -83.4200 345° North 428 493 38,000  Level Jacksonville Center
Sun 09:16:46 AM 30.0564 -83.4517 347° North 428 493 38,000  Level Jacksonville Center
Sun 09:17:46 AM 30.1753 -83.4908 344° North 428 493 38,000  Level Jacksonville Center
Sun 09:18:46 AM 30.2900 -83.5228 346° North 433 498 38,000  Level Jacksonville Center
Sun 09:19:46 AM 30.4067 -83.5575 346° North 428 493 38,000  Level Jacksonville Center
Sun 09:20:46 AM 30.5236 -83.5942 345° North 428 493 38,000  Level Jacksonville Center
Sun 09:21:46 AM 30.6361 -83.6289 345° North 420 483 38,000  Level Jacksonville Center
Sun 09:22:46 AM 30.7506 -83.6636 345° North 420 483 38,000  Level Jacksonville Center
Sun 09:23:46 AM 30.8694 -83.7008 345° North 420 483 38,000  Level Jacksonville Center
Sun 09:24:46 AM 30.9861 -83.7383 345° North 420 483 38,000  Level Jacksonville Center
Sun 09:26:41 AM 31.1956 -83.8033 345° North 433 498 38,000  Level Atlanta Center
Sun 09:27:41 AM 31.3144 -83.8397 345° North 433 498 38,000  Level Atlanta Center
Sun 09:28:41 AM 31.4292 -83.8783 344° North 428 493 38,000  Level Atlanta Center
Sun 09:29:41 AM 31.5567 -83.9194 345° North 428 493 38,000  Level Atlanta Center
Sun 09:30:41 AM 31.6756 -83.9583 344° North 434 499 38,000  Level Atlanta Center
Sun 09:31:41 AM 31.7947 -83.9925 346° North 434 499 38,000  Level Atlanta Center
Sun 09:32:41 AM 31.9094 -84.0267 346° North 429 494 38,000  Level Atlanta Center
Sun 09:33:41 AM 32.0264 -84.0633 345° North 429 494 38,000  Level Atlanta Center
Sun 09:34:41 AM 32.1411 -84.0978 346° North 429 494 38,000  Level Atlanta Center
Sun 09:35:41 AM 32.2600 -84.1347 345° North 434 499 38,000  Level Atlanta Center
Sun 09:36:41 AM 32.3747 -84.1742 344° North 434 499 38,000  Level Atlanta Center
Sun 09:37:41 AM 32.4958 -84.2086 347° North 434 499 38,000  Level Atlanta Center
Sun 09:38:41 AM 32.6106 -84.2483 344° North 434 499 38,000  Level Atlanta Center
Sun 09:39:41 AM 32.7275 -84.2883 344° North 434 499 38,000  Level Atlanta Center
Sun 09:40:41 AM 32.8294 -84.3231 344° North 434 499 38,000  Level Atlanta Center
Sun 09:41:41 AM 32.9464 -84.3606 345° North 434 499 38,000  Level Atlanta Center
Sun 09:42:41 AM 33.0631 -84.3983 345° North 434 499 38,000  Level Atlanta Center
Sun 09:43:41 AM 33.1903 -84.4411 344° North 434 499 38,000  Level Atlanta Center
Sun 09:44:41 AM 33.3072 -84.4764 346° North 429 494 38,000  Level Atlanta Center
Sun 09:45:41 AM 33.4239 -84.5167 344° North 437 503 38,000  Level Atlanta Center
Sun 09:46:41 AM 33.5406 -84.5547 345° North 437 503 38,000  Level Atlanta Center
Sun 09:47:41 AM 33.6469 -84.5828 348° North 432 497 38,000  Level Atlanta Center
Sun 09:48:41 AM 33.7617 -84.6211 344° North 432 497 38,000  Level Atlanta Center
Sun 09:49:41 AM 33.8783 -84.6594 345° North 432 497 38,000  Level Atlanta Center
Sun 09:50:41 AM 33.9950 -84.7003 344° North 437 503 38,000  Level Atlanta Center
Sun 09:51:41 AM 34.1094 -84.7389 344° North 437 503 38,000  Level Atlanta Center
Sun 09:52:41 AM 34.2303 -84.7775 345° North 437 503 38,000  Level Atlanta Center
Sun 09:53:41 AM 34.3575 -84.8164 346° North 431 496 38,000  Level Atlanta Center
Sun 09:54:41 AM 34.4742 -84.8578 344° North 431 496 38,000  Level Atlanta Center
Sun 09:55:41 AM 34.5906 -84.8942 346° North 431 496 38,000  Level Atlanta Center
Sun 09:56:41 AM 34.6906 -84.9306 343° North 431 496 38,000  Level Atlanta Center
Sun 09:57:41 AM 34.8050 -84.9697 344° North 425 489 38,000  Level Atlanta Center
Sun 09:58:41 AM 34.9217 -85.0089 345° North 425 489 38,000  Level Atlanta Center
Sun 09:59:41 AM 35.0381 -85.0483 344° North 430 495 38,000  Level Atlanta Center
Sun 10:00:41 AM 35.1547 -85.0881 344° North 430 495 38,000  Level Atlanta Center
Sun 10:01:41 AM 35.2794 -85.1328 344° North 430 495 38,000  Level Atlanta Center
Sun 10:02:31 AM 35.3647 -85.1597 346° North 432 497 38,000  Level Memphis Center
Sun 10:03:32 AM 35.4819 -85.1994 345° North 432 497 38,000  Level Memphis Center
Sun 10:04:34 AM 35.5992 -85.2400 344° North 432 497 38,000  Level Memphis Center
Sun 10:05:36 AM 35.7167 -85.2814 344° North 432 497 38,000  Level Memphis Center
Sun 10:06:37 AM 35.8347 -85.3219 344° North 433 498 38,000  Level Memphis Center
Sun 10:07:39 AM 35.9525 -85.3614 345° North 433 498 38,000  Level Memphis Center
Sun 10:08:40 AM 36.0931 -85.4108 344° North 433 498 38,000  Level Memphis Center
Sun 10:09:42 AM 36.2106 -85.4514 344° North 433 498 38,000  Level Memphis Center
Sun 10:10:43 AM 36.3264 -85.4906 345° North 433 498 38,000  Level Memphis Center
Sun 10:11:41 AM 36.4411 -85.5325 344° North 433 498 38,000  Level Indianapolis Center
Sun 10:12:43 AM 36.5564 -85.5731 344° North 433 498 38,000  Level Indianapolis Center
Sun 10:13:45 AM 36.6708 -85.6133 344° North 429 494 38,000  Level Indianapolis Center
Sun 10:14:46 AM 36.7775 -85.6503 344° North 428 493 38,000  Level Indianapolis Center
Sun 10:15:48 AM 36.8939 -85.6922 344° North 430 495 38,000  Level Indianapolis Center
Sun 10:16:50 AM 37.0283 -85.7414 344° North 429 494 38,000  Level Indianapolis Center
Sun 10:17:51 AM 37.1436 -85.7800 345° North 425 489 38,000  Level Indianapolis Center
Sun 10:18:53 AM 37.2597 -85.8231 344° North 428 493 38,000  Level Indianapolis Center
Sun 10:19:55 AM 37.3792 -85.8672 344° North 439 505 38,000  Level Indianapolis Center
Sun 10:20:56 AM 37.4947 -85.9100 344° North 438 504 38,000  Level Indianapolis Center
Sun 10:21:58 AM 37.6094 -85.9503 344° North 432 497 38,000  Level Indianapolis Center
Sun 10:23:00 AM 37.7239 -85.9911 344° North 428 493 38,000  Level Indianapolis Center
Sun 10:24:01 AM 37.8378 -86.0331 344° North 428 493 38,000  Level Indianapolis Center
Sun 10:25:03 AM 37.9511 -86.0761 343° North 427 491 38,000  Level Indianapolis Center
Sun 10:26:05 AM 38.0881 -86.1258 344° North 427 491 38,000  Level Indianapolis Center
Sun 10:27:06 AM 38.2031 -86.1686 344° North 428 493 38,000  Level Indianapolis Center
Sun 10:28:08 AM 38.3158 -86.2103 344° North 427 491 38,000  Level Indianapolis Center
Sun 10:29:10 AM 38.4300 -86.2517 344° North 427 491 38,000  Level Indianapolis Center
Sun 10:30:11 AM 38.5428 -86.2939 344° North 427 491 38,000  Level Indianapolis Center
Sun 10:31:13 AM 38.6569 -86.3372 343° North 426 490 38,000  Level Indianapolis Center
Sun 10:32:15 AM 38.7703 -86.3792 344° North 426 490 38,000  Level Indianapolis Center
Sun 10:33:16 AM 38.8886 -86.4242 344° North 426 490 38,000  Level Indianapolis Center
Sun 10:34:18 AM 39.0008 -86.4667 344° North 426 490 38,000  Level Indianapolis Center
Sun 10:35:20 AM 39.1142 -86.5106 343° North 425 489 38,000  Level Indianapolis Center
Sun 10:36:21 AM 39.2497 -86.5611 344° North 425 489 38,000  Level Indianapolis Center
Sun 10:37:23 AM 39.3625 -86.6044 343° North 424 488 38,000  Level Indianapolis Center
Sun 10:38:24 AM 39.4756 -86.6475 344° North 424 488 38,000  Level Indianapolis Center
Sun 10:39:26 AM 39.5883 -86.6914 343° North 423 487 38,000  Level Indianapolis Center
Sun 10:40:28 AM 39.7014 -86.7350 343° North 423 487 38,000 -293 Level Indianapolis Center
Sun 10:41:29 AM 39.8153 -86.7789 344° North 423 487 37,400 -488 Descending Indianapolis Center
Sun 10:42:31 AM 39.9272 -86.8222 343° North 421 484 37,000 -194 Descending Indianapolis Center
Sun 10:43:33 AM 40.0386 -86.8658 343° North 420 483 37,000  Level Indianapolis Center
Sun 10:44:34 AM 40.1503 -86.9097 343° North 419 482 37,000  Level Indianapolis Center
Sun 10:45:36 AM 40.2828 -86.9617 343° North 418 481 37,000  Level Indianapolis Center
Sun 10:46:38 AM 40.3944 -87.0069 343° North 418 481 37,000  Level Indianapolis Center
Sun 10:47:39 AM 40.5053 -87.0486 344° North 417 480 37,000  Level Indianapolis Center
Sun 10:49:06 AM 40.6658 -87.0883 349° North 417 480 37,000  Level Chicago Center
Sun 10:50:08 AM 40.7942 -87.1078 353° North 420 483 37,000 -293 Level Chicago Center
Sun 10:51:09 AM 40.9092 -87.1253 353° North 419 482 36,400 -1,659 Descending Chicago Center
Sun 10:52:11 AM 41.0228 -87.1458 352° North 416 479 33,600 -1,790 Descending Chicago Center
Sun 10:53:13 AM 41.1392 -87.1614 354° North 418 481 32,700 -919 Descending Chicago Center
Sun 10:54:15 AM 41.2583 -87.1742 355° North 427 491 31,700 -1,065 Descending Chicago Center
Sun 10:55:17 AM 41.4011 -87.1908 355° North 430 495 30,500 -1,268 Descending Chicago Center
Sun 10:56:18 AM 41.5203 -87.2056 355° North 431 496 29,100 -1,756 Descending Chicago Center
Sun 10:57:20 AM 41.6356 -87.2203 355° North 424 488 26,900 -2,177 Descending Chicago Center
Sun 10:58:22 AM 41.7481 -87.2339 355° North 414 476 24,600 -1,597 Descending Chicago Center
Sun 10:59:24 AM 41.8569 -87.2469 355° North 401 461 23,600 -976 Descending Chicago Center
Sun 11:00:25 AM 41.9658 -87.2594 355° North 399 459 22,600 -1,073 Descending Chicago Center
Sun 11:01:27 AM 42.0939 -87.2733 355° North 386 444 21,400 -1,065 Descending Chicago Center
Sun 11:02:29 AM 42.1964 -87.2869 354° North 376 433 20,400 -968 Descending Chicago Center
Sun 11:03:31 AM 42.3000 -87.2994 355° North 375 432 19,400 -976 Descending Chicago Center
Sun 11:04:32 AM 42.4008 -87.3122 355° North 370 426 18,400 -1,610 Descending Chicago Center
Sun 11:05:34 AM 42.5117 -87.3275 354° North 369 425 16,100 -2,903 Descending Chicago Center
Sun 11:06:36 AM 42.6153 -87.3406 355° North 372 428 12,400 -2,952 Descending Chicago Center
Sun 11:07:38 AM 42.7044 -87.3853 340° North 363 418 10,000 -1,171 Descending Chicago Center
Sun 11:08:39 AM 42.7442 -87.4792 300° West 302 348 10,000  Level Chicago Center
Sun 11:09:41 AM 42.7867 -87.5700 303° West 290 334 10,000  Level Chicago Center
Sun 11:10:43 AM 42.8322 -87.6764 300° West 273 314 10,000 -390 Level Chicago Center
Sun 11:11:44 AM 42.8697 -87.7642 300° West 270 311 9,200 -1,024 Descending Chicago Center
Sun 11:12:46 AM 42.8631 -87.8694 265° West 263 303 7,900 -1,210 Descending Chicago Center
Sun 11:13:48 AM 42.8500 -87.9561 258° West 246 283 6,700 -1,452 Descending Chicago Center
Sun 11:14:50 AM 42.8386 -88.0419 260° West 235 270 4,900 -1,415 Descending Chicago Center
Sun 11:15:51 AM 42.8897 -88.0697 338° Northwest 232 267 3,800 -976 Descending Chicago Center
Sun 11:16:53 AM 42.9158 -88.0150 57° Northeast 204 235 2,900 -1,065 Descending Chicago Center
Sun 11:17:55 AM 42.9269 -87.9628 74° East 154 177 1,600 -1,258 Descending Chicago Center
Sun 11:20:00 AM 42.9333 -87.8833 48° Northeast  Level FlightAware Approximate
Sun 11:27:00 AM 42.9469 -87.8971 48° Northeast  Level Estimated

Login

Don't have an account? Register now (free) for customized features, flight alerts, and more!